createdAt,value
2023-05-12T00:00:32.348Z,51.97
2023-05-12T00:02:59.408Z,54.47
2023-05-12T00:05:26.410Z,53.83
2023-05-12T00:07:53.287Z,49.70
2023-05-12T00:10:20.412Z,45.10
2023-05-12T00:12:48.450Z,54.72
2023-05-12T00:15:15.435Z,46.60
2023-05-12T00:17:42.416Z,48.83
2023-05-12T00:20:10.549Z,47.40
2023-05-12T00:22:37.630Z,49.13
2023-05-12T00:25:04.886Z,46.55
2023-05-12T00:27:32.277Z,45.95
2023-05-12T00:29:59.708Z,47.58
2023-05-12T00:32:27.504Z,42.75
2023-05-12T00:34:54.629Z,43.22
2023-05-12T00:37:21.615Z,45.67
2023-05-12T00:39:48.601Z,48.28
2023-05-12T00:42:15.936Z,44.78
2023-05-12T00:44:42.911Z,43.47
2023-05-12T00:47:10.046Z,40.63
2023-05-12T00:49:37.064Z,39.03
2023-05-12T00:52:06.349Z,40.60
2023-05-12T00:54:33.790Z,41.25
2023-05-12T00:57:00.994Z,42.97
2023-05-12T00:59:29.692Z,44.78
2023-05-12T01:01:57.656Z,38.92
2023-05-12T01:04:24.729Z,40.78
2023-05-12T01:07:05.859Z,46.38
2023-05-12T01:09:33.009Z,39.10
2023-05-12T01:12:00.265Z,42.67
2023-05-12T01:14:27.337Z,37.05
2023-05-12T01:16:58.096Z,43.10
2023-05-12T01:19:57.361Z,39.17
2023-05-12T01:22:26.326Z,39.10
2023-05-12T01:24:57.219Z,30.88
2023-05-12T01:27:28.516Z,30.88
2023-05-12T01:29:58.336Z,32.50
2023-05-12T01:32:25.290Z,32.13
2023-05-12T01:34:52.570Z,31.65
2023-05-12T01:37:22.316Z,30.77
2023-05-12T01:39:49.234Z,29.25
2023-05-12T01:42:16.413Z,28.75
2023-05-12T01:44:43.289Z,28.60
2023-05-12T01:47:11.383Z,30.83
2023-05-12T01:49:38.567Z,30.20
2023-05-12T01:52:05.874Z,33.85
2023-05-12T01:54:33.113Z,29.20
2023-05-12T01:57:00.182Z,31.02
2023-05-12T01:59:27.110Z,33.97
2023-05-12T02:01:54.266Z,34.70
2023-05-12T02:04:21.274Z,31.02
2023-05-12T02:06:48.234Z,39.17
2023-05-12T02:09:15.304Z,37.30
2023-05-12T02:11:42.303Z,38.20
2023-05-12T02:14:09.480Z,41.53
2023-05-12T02:16:36.765Z,36.72
2023-05-12T02:19:04.266Z,43.00
2023-05-12T02:21:31.443Z,42.70
2023-05-12T02:23:58.381Z,47.90
2023-05-12T02:26:25.447Z,44.20
2023-05-12T02:28:52.428Z,40.80
2023-05-12T02:31:19.404Z,42.22
2023-05-12T02:33:46.603Z,45.15
2023-05-12T02:36:13.734Z,39.63
2023-05-12T02:38:40.554Z,42.05
2023-05-12T02:41:07.706Z,45.97
2023-05-12T02:43:34.983Z,44.88
2023-05-12T02:46:01.997Z,41.90
2023-05-12T02:48:30.434Z,41.42
2023-05-12T02:50:57.873Z,43.75
2023-05-12T02:53:24.858Z,45.15
2023-05-12T02:55:51.698Z,45.90
2023-05-12T02:58:20.045Z,47.88
2023-05-12T03:00:50.203Z,45.88
2023-05-12T03:03:21.119Z,54.17
2023-05-12T03:05:48.723Z,50.20
2023-05-12T03:08:15.632Z,52.28
2023-05-12T03:10:44.070Z,47.80
2023-05-12T03:13:11.019Z,47.75
2023-05-12T03:15:37.915Z,53.13
2023-05-12T03:18:05.109Z,49.75
2023-05-12T03:20:32.307Z,53.80
2023-05-12T03:22:59.657Z,49.08
2023-05-12T03:25:26.486Z,46.83
2023-05-12T03:27:53.270Z,49.55
2023-05-12T03:30:20.681Z,49.08
2023-05-12T03:32:48.411Z,54.63
2023-05-12T03:35:15.658Z,54.08
2023-05-12T03:37:42.475Z,58.17
2023-05-12T03:40:09.850Z,62.00
2023-05-12T03:42:36.658Z,53.00
2023-05-12T03:45:03.696Z,57.25
2023-05-12T03:47:30.580Z,50.65
2023-05-12T03:49:58.994Z,52.80
2023-05-12T03:52:25.865Z,49.45
2023-05-12T03:54:52.963Z,46.83
2023-05-12T03:57:20.047Z,45.92
2023-05-12T03:59:46.863Z,43.45
2023-05-12T04:02:14.027Z,42.80
2023-05-12T04:04:41.153Z,43.13
2023-05-12T04:07:08.029Z,41.42
2023-05-12T04:09:34.886Z,21.80
2023-05-12T04:12:02.217Z,21.08
2023-05-12T04:14:41.754Z,21.60
2023-05-12T04:17:09.916Z,26.70
2023-05-12T04:19:36.721Z,24.02
2023-05-12T04:22:04.064Z,27.33
2023-05-12T04:24:31.660Z,22.98
2023-05-12T04:26:58.592Z,29.20
2023-05-12T04:29:25.385Z,24.83
2023-05-12T04:31:54.302Z,28.75
2023-05-12T04:34:21.539Z,23.88
2023-05-12T04:36:48.681Z,22.10
2023-05-12T04:39:15.456Z,22.77
2023-05-12T04:41:42.239Z,21.90
2023-05-12T04:44:09.089Z,19.40
2023-05-12T04:46:36.438Z,20.33
2023-05-12T04:49:03.318Z,12.73
2023-05-12T04:51:30.244Z,14.23
2023-05-12T04:53:57.164Z,11.50
2023-05-12T04:56:24.001Z,12.25
2023-05-12T04:58:51.031Z,10.48
2023-05-12T05:01:18.281Z,10.10
2023-05-12T05:03:45.804Z,13.63
2023-05-12T05:06:13.209Z,12.18
2023-05-12T05:08:40.467Z,10.25
2023-05-12T05:11:07.252Z,11.57
2023-05-12T05:13:34.087Z,8.15
2023-05-12T05:16:01.767Z,8.65
2023-05-12T05:20:58.481Z,12.23
2023-05-12T05:23:26.300Z,8.98
2023-05-12T05:25:53.228Z,8.25
2023-05-12T05:28:20.970Z,7.97
2023-05-12T05:30:47.878Z,11.27
2023-05-12T05:33:16.289Z,13.88
2023-05-12T05:35:43.412Z,8.18
2023-05-12T05:38:12.194Z,9.07
2023-05-12T05:40:51.515Z,6.80
2023-05-12T05:43:20.218Z,7.90
2023-05-12T05:45:49.647Z,6.85
2023-05-12T05:48:16.576Z,8.80
2023-05-12T05:50:43.715Z,6.88
2023-05-12T05:53:10.503Z,12.18
2023-05-12T05:55:37.416Z,8.38
2023-05-12T05:58:04.298Z,9.48
2023-05-12T06:00:31.166Z,11.15
2023-05-12T06:02:58.352Z,7.18
2023-05-12T06:05:25.300Z,10.05
2023-05-12T06:07:52.308Z,10.70
2023-05-12T06:10:19.680Z,7.22
2023-05-12T06:12:47.044Z,14.02
2023-05-12T06:15:16.305Z,11.35
2023-05-12T06:17:43.477Z,9.70
2023-05-12T06:20:10.722Z,7.68
2023-05-12T06:22:38.730Z,7.50
2023-05-12T06:25:06.408Z,9.80
2023-05-12T06:27:33.629Z,9.52
2023-05-12T06:30:00.967Z,9.80
2023-05-12T06:32:28.244Z,9.77
2023-05-12T06:34:55.366Z,9.65
2023-05-12T06:37:22.519Z,8.85
2023-05-12T06:39:50.613Z,10.32
2023-05-12T06:42:17.522Z,4.47
2023-05-12T06:44:44.301Z,9.27
2023-05-12T06:47:11.790Z,4.20
2023-05-12T06:49:38.860Z,4.75
2023-05-12T06:52:06.999Z,4.38
2023-05-12T06:54:34.467Z,4.20
2023-05-12T06:57:01.844Z,6.28
2023-05-12T06:59:28.882Z,3.58
2023-05-12T07:01:55.857Z,2.72
2023-05-12T07:04:25.592Z,7.32
2023-05-12T07:06:53.869Z,4.95
2023-05-12T07:09:20.618Z,3.60
2023-05-12T07:11:47.802Z,5.05
2023-05-12T07:14:14.994Z,2.33
2023-05-12T07:16:41.848Z,2.08
2023-05-12T07:19:09.713Z,4.97
2023-05-12T07:21:37.389Z,2.40
2023-05-12T07:24:06.150Z,6.80
2023-05-12T07:26:33.277Z,9.98
2023-05-12T07:29:01.236Z,3.22
2023-05-12T07:31:28.974Z,7.07
2023-05-12T07:34:01.281Z,4.60
2023-05-12T07:36:28.741Z,5.38
2023-05-12T07:38:56.085Z,3.75
2023-05-12T07:41:23.252Z,6.80
2023-05-12T07:43:50.382Z,6.15
2023-05-12T07:46:18.197Z,5.15
2023-05-12T07:49:35.280Z,5.82
2023-05-12T07:52:02.170Z,4.30
2023-05-12T07:54:29.341Z,6.22
2023-05-12T07:56:56.268Z,5.40
2023-05-12T07:59:23.187Z,5.47
2023-05-12T08:01:50.071Z,8.77
2023-05-12T08:04:16.982Z,7.43
2023-05-12T08:06:44.198Z,3.70
2023-05-12T08:09:14.701Z,5.43
2023-05-12T08:11:43.918Z,5.43
2023-05-12T08:14:12.983Z,9.95
2023-05-12T08:16:41.188Z,8.57
2023-05-12T08:19:09.182Z,7.13
2023-05-12T08:21:36.575Z,5.07
2023-05-12T08:24:04.265Z,4.43
2023-05-12T08:26:32.557Z,6.95
2023-05-12T08:29:01.444Z,3.67
2023-05-12T08:31:29.280Z,4.18
2023-05-12T08:34:09.178Z,6.28
2023-05-12T08:36:39.165Z,9.00
2023-05-12T08:39:06.512Z,3.70
2023-05-12T08:41:56.178Z,2.67
2023-05-12T08:44:24.795Z,5.35
2023-05-12T08:46:54.962Z,3.33
2023-05-12T08:49:24.773Z,3.72
2023-05-12T08:51:57.315Z,3.42
2023-05-12T08:54:28.575Z,2.42
2023-05-12T08:59:26.763Z,4.05
2023-05-12T09:01:55.340Z,5.80
2023-05-12T09:04:22.473Z,1.98
2023-05-12T09:06:49.772Z,3.58
2023-05-12T09:09:17.835Z,2.33
2023-05-12T09:11:45.149Z,1.60
2023-05-12T09:14:26.007Z,2.58
2023-05-12T09:17:03.882Z,3.80
2023-05-12T09:19:31.615Z,2.17
2023-05-12T09:21:58.921Z,2.17
2023-05-12T09:24:37.073Z,5.07
2023-05-12T09:27:04.776Z,10.75
2023-05-12T09:29:37.531Z,2.63
2023-05-12T09:34:38.887Z,5.43
2023-05-12T09:37:09.617Z,4.93
2023-05-12T09:39:37.038Z,3.42
2023-05-12T09:42:04.186Z,3.65
2023-05-12T09:44:32.501Z,4.80
2023-05-12T09:47:10.560Z,2.83
2023-05-12T09:49:38.468Z,3.38
2023-05-12T09:52:05.716Z,3.10
2023-05-12T09:54:34.628Z,4.95
2023-05-12T09:57:08.763Z,5.97
2023-05-12T09:59:39.357Z,4.20
2023-05-12T10:02:09.563Z,1.90
2023-05-12T10:05:06.770Z,4.30
2023-05-12T10:07:34.742Z,4.38
2023-05-12T10:10:04.894Z,5.85
2023-05-12T10:12:32.131Z,5.65
2023-05-12T10:15:00.603Z,3.10
2023-05-12T10:17:28.250Z,7.88
2023-05-12T10:19:55.615Z,4.18
2023-05-12T10:22:23.481Z,6.32
2023-05-12T10:24:51.730Z,4.40
2023-05-12T10:27:19.360Z,3.08
2023-05-12T10:29:48.588Z,3.70
2023-05-12T10:32:16.305Z,5.65
2023-05-12T10:34:43.633Z,19.40
2023-05-12T10:37:11.943Z,3.13
2023-05-12T10:39:48.395Z,12.52
2023-05-12T10:42:23.124Z,7.32
2023-05-12T10:44:52.409Z,2.70
2023-05-12T10:47:23.562Z,4.03
2023-05-12T10:49:56.940Z,3.72
2023-05-12T10:52:23.765Z,5.22
2023-05-12T10:54:50.842Z,2.35
2023-05-12T10:57:21.511Z,4.55
2023-05-12T10:59:59.821Z,6.57
2023-05-12T11:02:32.335Z,5.75
2023-05-12T11:05:02.178Z,6.50
2023-05-12T11:07:33.101Z,3.33
2023-05-12T11:10:05.371Z,4.00
2023-05-12T11:12:35.884Z,3.60
2023-05-12T11:15:04.615Z,11.13
2023-05-12T11:17:32.109Z,4.75
2023-05-12T11:20:01.172Z,3.30
2023-05-12T11:22:28.336Z,5.68
2023-05-12T11:24:55.359Z,4.43
2023-05-12T11:27:23.819Z,4.72
2023-05-12T11:30:01.874Z,5.50
2023-05-12T11:32:30.172Z,6.40
2023-05-12T11:35:10.100Z,6.65
2023-05-12T11:37:41.636Z,4.35
2023-05-12T11:40:20.283Z,2.53
2023-05-12T11:42:49.314Z,8.40
2023-05-12T11:45:28.479Z,3.90
2023-05-12T11:48:11.706Z,2.25
2023-05-12T11:50:41.402Z,4.25
2023-05-12T11:53:15.027Z,3.30
2023-05-12T11:55:56.880Z,7.47
2023-05-12T11:58:30.665Z,2.65
2023-05-12T12:01:09.022Z,3.58
2023-05-12T12:03:46.940Z,4.85
2023-05-12T12:06:14.069Z,4.93
2023-05-12T12:08:55.005Z,7.18
2023-05-12T12:11:23.297Z,4.07
2023-05-12T12:13:57.839Z,4.68
2023-05-12T12:16:29.739Z,6.75
2023-05-12T12:22:02.505Z,4.35
2023-05-12T12:24:29.410Z,6.72
2023-05-12T12:27:20.459Z,6.78
2023-05-12T12:29:47.522Z,3.03
2023-05-12T12:35:40.286Z,4.57
2023-05-12T12:38:07.494Z,3.60
2023-05-12T12:40:34.659Z,4.88
2023-05-12T12:43:01.804Z,5.05
2023-05-12T12:45:28.820Z,6.07
2023-05-12T12:47:56.019Z,5.32
2023-05-12T12:50:25.068Z,4.63
2023-05-12T12:52:53.115Z,7.90
2023-05-12T12:55:21.333Z,6.13
2023-05-12T12:57:48.568Z,5.38
2023-05-12T13:00:16.155Z,6.85
2023-05-12T13:02:43.058Z,4.72
2023-05-12T13:05:10.753Z,3.97
2023-05-12T13:07:37.582Z,5.65
2023-05-12T13:10:05.289Z,5.57
2023-05-12T13:12:32.562Z,2.58
2023-05-12T13:15:00.385Z,4.25
2023-05-12T13:17:27.433Z,4.65
2023-05-12T13:19:54.660Z,4.90
2023-05-12T13:22:21.810Z,2.90
2023-05-12T13:24:48.653Z,5.03
2023-05-12T13:27:15.426Z,3.53
2023-05-12T13:29:42.417Z,4.75
2023-05-12T13:32:09.258Z,8.20
2023-05-12T13:34:36.028Z,3.03
2023-05-12T13:37:02.822Z,6.93
2023-05-12T13:39:29.670Z,3.40
2023-05-12T13:41:56.434Z,4.03
2023-05-12T13:44:23.206Z,3.08
2023-05-12T13:46:50.532Z,7.13
2023-05-12T13:49:19.760Z,3.97
2023-05-12T13:51:46.592Z,7.32
2023-05-12T13:54:13.492Z,6.25
2023-05-12T13:56:40.274Z,4.55
2023-05-12T13:59:08.817Z,4.70
2023-05-12T14:01:36.091Z,4.10
2023-05-12T14:04:03.179Z,5.25
2023-05-12T14:06:30.113Z,3.13
2023-05-12T14:08:57.094Z,3.88
2023-05-12T14:11:23.871Z,4.28
2023-05-12T14:13:51.026Z,4.07
2023-05-12T14:16:17.819Z,3.65
2023-05-12T14:18:45.029Z,3.70
2023-05-12T14:21:12.058Z,4.70
2023-05-12T14:23:39.217Z,3.78
2023-05-12T14:26:06.215Z,5.10
2023-05-12T14:28:33.464Z,6.97
2023-05-12T14:31:02.190Z,6.50
2023-05-12T14:33:29.128Z,5.22
2023-05-12T14:36:06.488Z,4.57
2023-05-12T14:38:34.914Z,5.20
2023-05-12T14:41:01.806Z,5.53
2023-05-12T14:43:28.649Z,3.58
2023-05-12T14:45:55.496Z,5.63
2023-05-12T14:48:23.723Z,9.45
2023-05-12T14:50:57.573Z,3.22
2023-05-12T14:53:24.787Z,5.18
2023-05-12T14:55:52.214Z,3.30
2023-05-12T14:58:19.435Z,3.08
2023-05-12T15:00:47.639Z,4.03
2023-05-12T15:03:14.732Z,4.30
2023-05-12T15:06:01.785Z,3.50
2023-05-12T15:08:29.407Z,4.68
2023-05-12T15:10:56.192Z,3.28
2023-05-12T15:13:23.090Z,4.05
2023-05-12T15:15:51.045Z,6.40
2023-05-12T15:18:19.902Z,5.85
2023-05-12T15:20:46.669Z,6.75
2023-05-12T15:23:13.577Z,2.95
2023-05-12T15:25:41.199Z,7.93
2023-05-12T15:28:08.442Z,4.32
2023-05-12T15:30:36.417Z,4.60
2023-05-12T15:33:06.688Z,3.97
2023-05-12T15:35:34.358Z,4.68
2023-05-12T15:38:01.119Z,4.20
2023-05-12T15:40:30.158Z,5.28
2023-05-12T15:42:57.413Z,8.93
2023-05-12T15:45:24.243Z,4.00
2023-05-12T15:47:51.065Z,3.67
2023-05-12T15:50:20.076Z,7.22
2023-05-12T15:52:47.744Z,3.38
2023-05-12T15:55:14.552Z,4.65
2023-05-12T15:57:41.515Z,4.93
2023-05-12T16:00:08.792Z,3.33
2023-05-12T16:02:35.688Z,4.88
2023-05-12T16:05:02.558Z,5.85
2023-05-12T16:07:31.085Z,5.00
2023-05-12T16:09:58.641Z,6.78
2023-05-12T16:12:25.457Z,4.30
2023-05-12T16:14:52.583Z,2.72
2023-05-12T16:17:19.505Z,3.53
2023-05-12T16:19:46.681Z,4.93
2023-05-12T16:22:14.621Z,2.90
2023-05-12T16:24:41.879Z,4.13
2023-05-12T16:27:08.876Z,4.05
2023-05-12T16:29:36.232Z,6.78
2023-05-12T16:32:03.211Z,2.78
2023-05-12T16:34:31.096Z,2.75
2023-05-12T16:36:57.924Z,3.67
2023-05-12T16:39:24.763Z,7.55
2023-05-12T16:41:51.592Z,2.33
2023-05-12T16:44:18.462Z,3.33
2023-05-12T16:46:45.329Z,7.60
2023-05-12T16:49:12.364Z,2.65
2023-05-12T16:51:39.317Z,4.45
2023-05-12T16:54:06.720Z,4.40
2023-05-12T16:56:33.818Z,2.65
2023-05-12T16:59:01.528Z,4.43
2023-05-12T17:01:30.615Z,3.38
2023-05-12T17:03:57.684Z,4.50
2023-05-12T17:06:24.509Z,2.30
2023-05-12T17:08:51.312Z,7.05
2023-05-12T17:11:18.742Z,5.35
2023-05-12T17:13:45.527Z,2.72
2023-05-12T17:16:12.560Z,4.20
2023-05-12T17:21:10.685Z,3.85
2023-05-12T17:23:37.819Z,2.45
2023-05-12T17:26:05.072Z,5.20
2023-05-12T17:28:32.957Z,3.03
2023-05-12T17:31:01.432Z,4.13
2023-05-12T17:33:29.377Z,4.47
2023-05-12T17:36:10.863Z,7.90
2023-05-12T17:38:42.518Z,5.78
2023-05-12T17:41:09.341Z,3.28
2023-05-12T17:43:37.618Z,5.32
2023-05-12T17:46:05.196Z,2.97
2023-05-12T17:48:33.463Z,3.65
2023-05-12T17:51:01.583Z,4.05
2023-05-12T17:53:29.118Z,3.55
2023-05-12T17:55:56.052Z,4.13
2023-05-12T17:58:23.140Z,3.95
2023-05-12T18:00:51.227Z,3.25
2023-05-12T18:03:23.428Z,6.50
2023-05-12T18:05:52.239Z,5.07
2023-05-12T18:08:19.370Z,2.53
2023-05-12T18:10:46.813Z,8.38
2023-05-12T18:13:15.537Z,3.63
2023-05-12T18:15:42.542Z,6.45
2023-05-12T18:18:10.455Z,3.45
2023-05-12T18:20:37.372Z,5.28
2023-05-12T18:23:04.224Z,4.65
2023-05-12T18:25:31.157Z,4.72
2023-05-12T18:27:58.005Z,3.40
2023-05-12T18:30:24.813Z,3.10
2023-05-12T18:32:51.771Z,4.35
2023-05-12T18:35:18.936Z,5.10
2023-05-12T18:37:45.981Z,4.28
2023-05-12T18:40:13.179Z,6.50
2023-05-12T18:42:40.034Z,6.50
2023-05-12T18:45:07.586Z,3.25
2023-05-12T18:47:34.639Z,4.25
2023-05-12T18:50:01.551Z,3.72
2023-05-12T18:52:29.864Z,4.45
2023-05-12T18:54:56.700Z,5.90
2023-05-12T18:57:23.559Z,6.38
2023-05-12T18:59:51.162Z,5.57
2023-05-12T19:02:17.976Z,4.80
2023-05-12T19:04:44.925Z,5.78
2023-05-12T19:07:15.339Z,4.47
2023-05-12T19:09:43.170Z,7.30
2023-05-12T19:12:11.797Z,5.38
2023-05-12T19:14:39.603Z,5.38
2023-05-12T19:17:07.252Z,5.53
2023-05-12T19:19:34.181Z,8.45
2023-05-12T19:22:01.084Z,10.20
2023-05-12T19:24:27.903Z,7.78
2023-05-12T19:26:54.712Z,10.00
2023-05-12T19:29:21.856Z,6.40
2023-05-12T19:31:48.902Z,7.10
2023-05-12T19:34:16.332Z,8.07
2023-05-12T19:36:43.587Z,6.13
2023-05-12T19:39:10.829Z,11.18
2023-05-12T19:41:39.413Z,10.70
2023-05-12T19:44:06.284Z,8.43
2023-05-12T19:46:33.547Z,7.07
2023-05-12T19:49:00.534Z,10.02
2023-05-12T19:51:28.085Z,9.52
2023-05-12T19:53:54.981Z,11.95
2023-05-12T19:56:21.865Z,10.98
2023-05-12T19:58:48.745Z,11.88
2023-05-12T20:01:15.956Z,10.50
2023-05-12T20:03:42.869Z,10.15
2023-05-12T20:06:10.457Z,7.78
2023-05-12T20:08:37.574Z,9.57
2023-05-12T20:11:04.695Z,8.25
2023-05-12T20:13:32.559Z,11.10
2023-05-12T20:16:00.047Z,7.10
2023-05-12T20:18:28.654Z,7.50
2023-05-12T20:20:56.294Z,10.45
2023-05-12T20:23:23.504Z,9.90
2023-05-12T20:25:51.358Z,9.30
2023-05-12T20:28:18.655Z,8.60
2023-05-12T20:30:46.322Z,7.50
2023-05-12T20:33:13.232Z,7.90
2023-05-12T20:35:40.034Z,12.05
2023-05-12T20:38:07.239Z,11.40
2023-05-12T20:40:34.268Z,11.30
2023-05-12T20:43:01.202Z,9.95
2023-05-12T20:45:28.223Z,14.25
2023-05-12T20:47:55.079Z,9.25
2023-05-12T20:50:23.816Z,9.70
2023-05-12T20:52:50.842Z,7.72
2023-05-12T20:55:19.151Z,8.73
2023-05-12T20:57:46.395Z,15.00
2023-05-12T21:00:13.934Z,11.07
2023-05-12T21:02:41.339Z,14.73
2023-05-12T21:05:08.556Z,9.48
2023-05-12T21:07:35.539Z,18.40
2023-05-12T21:10:03.830Z,9.85
2023-05-12T21:12:31.615Z,10.93
2023-05-12T21:15:00.740Z,14.70
2023-05-12T21:17:28.468Z,10.15
2023-05-12T21:19:55.375Z,8.52
2023-05-12T21:22:22.251Z,11.38
2023-05-12T21:24:51.060Z,14.85
2023-05-12T21:27:18.732Z,9.70
2023-05-12T21:29:45.954Z,14.48
2023-05-12T21:32:12.969Z,9.57
2023-05-12T21:34:40.030Z,8.77
2023-05-12T21:37:07.257Z,12.18
2023-05-12T21:39:34.427Z,10.95
2023-05-12T21:42:02.126Z,9.35
2023-05-12T21:44:29.191Z,11.45
2023-05-12T21:46:58.770Z,10.52
2023-05-12T21:49:27.261Z,11.55
2023-05-12T21:51:58.647Z,10.13
2023-05-12T21:54:25.803Z,9.07
2023-05-12T21:56:52.568Z,8.90
2023-05-12T21:59:19.816Z,8.07
2023-05-12T22:01:50.837Z,8.57
2023-05-12T22:04:17.695Z,9.23
2023-05-12T22:06:48.502Z,11.18
2023-05-12T22:09:16.112Z,12.75
2023-05-12T22:11:42.977Z,10.70
2023-05-12T22:14:09.825Z,14.25
2023-05-12T22:16:42.045Z,11.52
2023-05-12T22:21:37.014Z,16.30
2023-05-12T22:24:04.063Z,10.43
2023-05-12T22:26:31.060Z,10.10
2023-05-12T22:28:57.893Z,13.50
2023-05-12T22:31:25.032Z,11.27
2023-05-12T22:33:52.014Z,11.23
2023-05-12T22:36:18.917Z,16.92
2023-05-12T22:38:45.880Z,11.80
2023-05-12T22:41:12.867Z,10.52
2023-05-12T22:43:40.093Z,14.82
2023-05-12T22:46:09.809Z,10.75
2023-05-12T22:48:39.459Z,12.73
2023-05-12T22:51:07.069Z,11.65
2023-05-12T22:53:36.047Z,9.20
2023-05-12T22:56:03.691Z,9.48
2023-05-12T22:58:30.659Z,9.93
2023-05-12T23:00:57.673Z,9.23
2023-05-12T23:03:24.709Z,15.52
2023-05-12T23:05:51.706Z,17.35
2023-05-12T23:08:18.663Z,12.30
2023-05-12T23:10:45.812Z,15.10
2023-05-12T23:13:12.728Z,14.57
2023-05-12T23:15:39.658Z,15.95
2023-05-12T23:18:06.614Z,12.52
2023-05-12T23:20:34.054Z,13.23
2023-05-12T23:23:00.920Z,10.90
2023-05-12T23:25:27.700Z,12.63
2023-05-12T23:27:54.594Z,16.25
2023-05-12T23:30:21.804Z,12.98
2023-05-12T23:32:50.528Z,13.98
2023-05-12T23:35:17.573Z,17.75
2023-05-12T23:37:44.726Z,11.65
2023-05-12T23:40:12.039Z,14.52
2023-05-12T23:42:39.078Z,17.45
2023-05-12T23:45:06.698Z,15.07
2023-05-12T23:47:33.668Z,15.63
2023-05-12T23:50:00.617Z,15.63
2023-05-12T23:52:27.986Z,15.38
2023-05-12T23:54:54.844Z,8.73
2023-05-12T23:57:21.640Z,15.88
2023-05-12T23:59:48.845Z,11.43
